sensor_id;sensor_type;location;lat;lon;timestamp;P1;durP1;ratioP1;P2;durP2;ratioP2
25653;SDS011;13511;48.622;9.230;2023-04-24T00:01:19;7.38;;;6.68;;
25653;SDS011;13511;48.622;9.230;2023-04-24T00:03:45;6.53;;;6.03;;
25653;SDS011;13511;48.622;9.230;2023-04-24T00:06:11;6.05;;;5.53;;
25653;SDS011;13511;48.622;9.230;2023-04-24T00:08:37;6.40;;;5.97;;
25653;SDS011;13511;48.622;9.230;2023-04-24T00:11:03;6.47;;;6.10;;
25653;SDS011;13511;48.622;9.230;2023-04-24T00:13:29;5.70;;;5.47;;
25653;SDS011;13511;48.622;9.230;2023-04-24T00:15:55;6.10;;;5.60;;
25653;SDS011;13511;48.622;9.230;2023-04-24T00:18:21;5.30;;;5.10;;
25653;SDS011;13511;48.622;9.230;2023-04-24T00:20:47;6.13;;;5.63;;
25653;SDS011;13511;48.622;9.230;2023-04-24T00:23:13;5.70;;;5.40;;
25653;SDS011;13511;48.622;9.230;2023-04-24T00:25:39;6.57;;;5.85;;
25653;SDS011;13511;48.622;9.230;2023-04-24T00:28:05;6.63;;;6.10;;
25653;SDS011;13511;48.622;9.230;2023-04-24T00:30:31;5.95;;;5.70;;
25653;SDS011;13511;48.622;9.230;2023-04-24T00:32:57;7.38;;;5.82;;
25653;SDS011;13511;48.622;9.230;2023-04-24T00:35:24;6.07;;;5.57;;
25653;SDS011;13511;48.622;9.230;2023-04-24T00:37:49;9.27;;;5.82;;
25653;SDS011;13511;48.622;9.230;2023-04-24T00:40:16;6.78;;;6.22;;
25653;SDS011;13511;48.622;9.230;2023-04-24T00:42:42;6.05;;;5.60;;
25653;SDS011;13511;48.622;9.230;2023-04-24T00:45:08;6.00;;;5.70;;
25653;SDS011;13511;48.622;9.230;2023-04-24T00:47:35;6.40;;;5.80;;
25653;SDS011;13511;48.622;9.230;2023-04-24T00:50:04;5.80;;;5.53;;
25653;SDS011;13511;48.622;9.230;2023-04-24T00:52:31;6.27;;;5.97;;
25653;SDS011;13511;48.622;9.230;2023-04-24T00:54:57;5.95;;;5.55;;
25653;SDS011;13511;48.622;9.230;2023-04-24T00:57:23;6.00;;;5.68;;
25653;SDS011;13511;48.622;9.230;2023-04-24T00:59:50;5.70;;;5.50;;
25653;SDS011;13511;48.622;9.230;2023-04-24T01:02:16;6.20;;;5.90;;
25653;SDS011;13511;48.622;9.230;2023-04-24T01:04:42;6.55;;;6.05;;
25653;SDS011;13511;48.622;9.230;2023-04-24T01:07:08;6.40;;;5.90;;
25653;SDS011;13511;48.622;9.230;2023-04-24T01:09:45;6.88;;;5.85;;
25653;SDS011;13511;48.622;9.230;2023-04-24T01:12:13;6.10;;;5.80;;
25653;SDS011;13511;48.622;9.230;2023-04-24T01:14:39;6.00;;;5.60;;
25653;SDS011;13511;48.622;9.230;2023-04-24T01:17:05;6.22;;;6.03;;
25653;SDS011;13511;48.622;9.230;2023-04-24T01:19:31;5.82;;;5.43;;
25653;SDS011;13511;48.622;9.230;2023-04-24T01:21:58;5.97;;;5.57;;
25653;SDS011;13511;48.622;9.230;2023-04-24T01:24:24;6.45;;;5.90;;
25653;SDS011;13511;48.622;9.230;2023-04-24T01:26:50;6.03;;;5.72;;
25653;SDS011;13511;48.622;9.230;2023-04-24T01:29:16;5.63;;;5.32;;
25653;SDS011;13511;48.622;9.230;2023-04-24T01:31:42;5.65;;;5.38;;
25653;SDS011;13511;48.622;9.230;2023-04-24T01:34:08;6.00;;;5.60;;
25653;SDS011;13511;48.622;9.230;2023-04-24T01:36:35;5.65;;;5.45;;
25653;SDS011;13511;48.622;9.230;2023-04-24T01:39:01;7.13;;;5.78;;
25653;SDS011;13511;48.622;9.230;2023-04-24T01:41:28;6.70;;;6.22;;
25653;SDS011;13511;48.622;9.230;2023-04-24T01:43:54;5.65;;;5.45;;
25653;SDS011;13511;48.622;9.230;2023-04-24T01:46:20;5.18;;;4.82;;
25653;SDS011;13511;48.622;9.230;2023-04-24T01:48:47;5.00;;;4.70;;
25653;SDS011;13511;48.622;9.230;2023-04-24T01:51:13;5.38;;;5.03;;
25653;SDS011;13511;48.622;9.230;2023-04-24T01:53:38;5.80;;;5.43;;
25653;SDS011;13511;48.622;9.230;2023-04-24T01:56:05;5.85;;;5.50;;
25653;SDS011;13511;48.622;9.230;2023-04-24T01:58:31;5.78;;;5.57;;
25653;SDS011;13511;48.622;9.230;2023-04-24T02:00:57;6.07;;;5.60;;
25653;SDS011;13511;48.622;9.230;2023-04-24T02:03:24;6.20;;;5.80;;
25653;SDS011;13511;48.622;9.230;2023-04-24T02:05:50;6.60;;;6.00;;
25653;SDS011;13511;48.622;9.230;2023-04-24T02:08:16;6.15;;;5.60;;
25653;SDS011;13511;48.622;9.230;2023-04-24T02:10:43;6.22;;;5.90;;
25653;SDS011;13511;48.622;9.230;2023-04-24T02:13:09;6.25;;;5.80;;
25653;SDS011;13511;48.622;9.230;2023-04-24T02:15:35;6.35;;;5.80;;
25653;SDS011;13511;48.622;9.230;2023-04-24T02:18:01;6.45;;;5.80;;
25653;SDS011;13511;48.622;9.230;2023-04-24T02:20:27;6.45;;;6.15;;
25653;SDS011;13511;48.622;9.230;2023-04-24T02:22:53;6.70;;;6.30;;
25653;SDS011;13511;48.622;9.230;2023-04-24T02:25:20;6.18;;;5.82;;
25653;SDS011;13511;48.622;9.230;2023-04-24T02:27:46;6.13;;;5.68;;
25653;SDS011;13511;48.622;9.230;2023-04-24T02:30:12;7.10;;;6.43;;
25653;SDS011;13511;48.622;9.230;2023-04-24T02:32:38;6.40;;;5.80;;
25653;SDS011;13511;48.622;9.230;2023-04-24T02:35:04;6.18;;;5.88;;
25653;SDS011;13511;48.622;9.230;2023-04-24T02:37:30;6.35;;;6.10;;
25653;SDS011;13511;48.622;9.230;2023-04-24T02:39:56;6.80;;;5.82;;
25653;SDS011;13511;48.622;9.230;2023-04-24T02:42:22;6.50;;;6.00;;
25653;SDS011;13511;48.622;9.230;2023-04-24T02:44:48;6.10;;;5.70;;
25653;SDS011;13511;48.622;9.230;2023-04-24T02:47:16;5.80;;;5.40;;
25653;SDS011;13511;48.622;9.230;2023-04-24T02:49:42;5.80;;;5.40;;
25653;SDS011;13511;48.622;9.230;2023-04-24T02:52:08;5.95;;;5.65;;
25653;SDS011;13511;48.622;9.230;2023-04-24T02:54:34;5.60;;;5.30;;
25653;SDS011;13511;48.622;9.230;2023-04-24T02:57:00;5.93;;;5.53;;
25653;SDS011;13511;48.622;9.230;2023-04-24T02:59:26;6.20;;;5.90;;
25653;SDS011;13511;48.622;9.230;2023-04-24T03:01:53;5.80;;;5.50;;
25653;SDS011;13511;48.622;9.230;2023-04-24T03:04:19;5.55;;;5.18;;
25653;SDS011;13511;48.622;9.230;2023-04-24T03:06:45;5.65;;;5.35;;
25653;SDS011;13511;48.622;9.230;2023-04-24T03:09:11;5.15;;;4.85;;
25653;SDS011;13511;48.622;9.230;2023-04-24T03:11:37;5.50;;;5.20;;
25653;SDS011;13511;48.622;9.230;2023-04-24T03:14:03;5.53;;;5.18;;
25653;SDS011;13511;48.622;9.230;2023-04-24T03:16:29;6.80;;;6.10;;
25653;SDS011;13511;48.622;9.230;2023-04-24T03:18:55;5.47;;;5.18;;
25653;SDS011;13511;48.622;9.230;2023-04-24T03:21:22;5.30;;;5.10;;
25653;SDS011;13511;48.622;9.230;2023-04-24T03:23:48;5.25;;;5.05;;
25653;SDS011;13511;48.622;9.230;2023-04-24T03:26:14;5.35;;;5.05;;
25653;SDS011;13511;48.622;9.230;2023-04-24T03:28:40;5.68;;;5.22;;
25653;SDS011;13511;48.622;9.230;2023-04-24T03:31:06;5.75;;;5.30;;
25653;SDS011;13511;48.622;9.230;2023-04-24T03:33:32;5.97;;;5.60;;
25653;SDS011;13511;48.622;9.230;2023-04-24T03:35:58;6.10;;;5.75;;
25653;SDS011;13511;48.622;9.230;2023-04-24T03:38:24;5.72;;;5.38;;
25653;SDS011;13511;48.622;9.230;2023-04-24T03:40:49;5.80;;;5.50;;
25653;SDS011;13511;48.622;9.230;2023-04-24T03:43:15;6.07;;;5.80;;
25653;SDS011;13511;48.622;9.230;2023-04-24T03:45:41;5.97;;;5.70;;
25653;SDS011;13511;48.622;9.230;2023-04-24T03:48:07;5.93;;;5.63;;
25653;SDS011;13511;48.622;9.230;2023-04-24T03:50:34;6.20;;;5.68;;
25653;SDS011;13511;48.622;9.230;2023-04-24T03:52:59;6.22;;;5.82;;
25653;SDS011;13511;48.622;9.230;2023-04-24T03:55:25;6.47;;;6.18;;
25653;SDS011;13511;48.622;9.230;2023-04-24T03:57:51;7.90;;;5.70;;
25653;SDS011;13511;48.622;9.230;2023-04-24T04:00:17;6.05;;;5.68;;
25653;SDS011;13511;48.622;9.230;2023-04-24T04:02:44;6.35;;;5.93;;
25653;SDS011;13511;48.622;9.230;2023-04-24T04:05:10;6.57;;;6.10;;
25653;SDS011;13511;48.622;9.230;2023-04-24T04:07:36;6.20;;;5.90;;
25653;SDS011;13511;48.622;9.230;2023-04-24T04:10:02;6.82;;;6.43;;
25653;SDS011;13511;48.622;9.230;2023-04-24T04:12:28;6.22;;;5.85;;
25653;SDS011;13511;48.622;9.230;2023-04-24T04:14:55;6.40;;;5.80;;
25653;SDS011;13511;48.622;9.230;2023-04-24T04:17:21;6.25;;;5.85;;
25653;SDS011;13511;48.622;9.230;2023-04-24T04:19:47;6.53;;;5.90;;
25653;SDS011;13511;48.622;9.230;2023-04-24T04:22:13;6.55;;;6.03;;
25653;SDS011;13511;48.622;9.230;2023-04-24T04:24:39;6.30;;;5.90;;
25653;SDS011;13511;48.622;9.230;2023-04-24T04:27:05;6.45;;;5.90;;
25653;SDS011;13511;48.622;9.230;2023-04-24T04:29:31;6.10;;;5.50;;
25653;SDS011;13511;48.622;9.230;2023-04-24T04:31:58;6.53;;;5.90;;
25653;SDS011;13511;48.622;9.230;2023-04-24T04:34:24;6.18;;;5.70;;
25653;SDS011;13511;48.622;9.230;2023-04-24T04:36:50;8.00;;;6.30;;
25653;SDS011;13511;48.622;9.230;2023-04-24T04:39:16;6.63;;;6.15;;
25653;SDS011;13511;48.622;9.230;2023-04-24T04:41:43;6.78;;;6.15;;
25653;SDS011;13511;48.622;9.230;2023-04-24T04:44:11;8.63;;;6.10;;
25653;SDS011;13511;48.622;9.230;2023-04-24T04:46:37;6.30;;;5.75;;
25653;SDS011;13511;48.622;9.230;2023-04-24T04:49:03;6.28;;;5.78;;
25653;SDS011;13511;48.622;9.230;2023-04-24T04:51:29;6.18;;;5.88;;
25653;SDS011;13511;48.622;9.230;2023-04-24T04:53:56;6.38;;;5.93;;
25653;SDS011;13511;48.622;9.230;2023-04-24T04:56:22;6.05;;;5.47;;
25653;SDS011;13511;48.622;9.230;2023-04-24T04:58:49;5.47;;;5.03;;
25653;SDS011;13511;48.622;9.230;2023-04-24T05:01:15;6.93;;;5.20;;
25653;SDS011;13511;48.622;9.230;2023-04-24T05:03:41;7.20;;;5.68;;
25653;SDS011;13511;48.622;9.230;2023-04-24T05:06:07;5.70;;;5.20;;
25653;SDS011;13511;48.622;9.230;2023-04-24T05:08:33;5.97;;;5.25;;
25653;SDS011;13511;48.622;9.230;2023-04-24T05:10:59;5.45;;;5.15;;
25653;SDS011;13511;48.622;9.230;2023-04-24T05:13:25;6.50;;;6.00;;
25653;SDS011;13511;48.622;9.230;2023-04-24T05:15:51;6.13;;;5.75;;
25653;SDS011;13511;48.622;9.230;2023-04-24T05:18:17;5.63;;;5.32;;
25653;SDS011;13511;48.622;9.230;2023-04-24T05:20:43;5.65;;;5.35;;
25653;SDS011;13511;48.622;9.230;2023-04-24T05:23:09;8.05;;;5.78;;
25653;SDS011;13511;48.622;9.230;2023-04-24T05:25:36;6.20;;;5.80;;
25653;SDS011;13511;48.622;9.230;2023-04-24T05:28:04;6.38;;;5.80;;
25653;SDS011;13511;48.622;9.230;2023-04-24T05:30:30;6.65;;;6.22;;
25653;SDS011;13511;48.622;9.230;2023-04-24T05:32:56;6.57;;;6.03;;
25653;SDS011;13511;48.622;9.230;2023-04-24T05:35:22;6.47;;;6.25;;
25653;SDS011;13511;48.622;9.230;2023-04-24T05:37:48;6.50;;;6.10;;
25653;SDS011;13511;48.622;9.230;2023-04-24T05:40:15;6.22;;;5.78;;
25653;SDS011;13511;48.622;9.230;2023-04-24T05:42:41;7.30;;;6.57;;
25653;SDS011;13511;48.622;9.230;2023-04-24T05:45:07;6.40;;;6.10;;
25653;SDS011;13511;48.622;9.230;2023-04-24T05:47:34;7.05;;;6.47;;
25653;SDS011;13511;48.622;9.230;2023-04-24T05:50:00;6.78;;;6.40;;
25653;SDS011;13511;48.622;9.230;2023-04-24T05:52:26;6.68;;;6.28;;
25653;SDS011;13511;48.622;9.230;2023-04-24T05:54:52;6.68;;;6.18;;
25653;SDS011;13511;48.622;9.230;2023-04-24T05:57:18;6.50;;;6.10;;
25653;SDS011;13511;48.622;9.230;2023-04-24T05:59:44;5.97;;;5.57;;
25653;SDS011;13511;48.622;9.230;2023-04-24T06:02:10;6.65;;;6.15;;
25653;SDS011;13511;48.622;9.230;2023-04-24T06:04:36;6.25;;;5.65;;
25653;SDS011;13511;48.622;9.230;2023-04-24T06:07:02;6.35;;;5.32;;
25653;SDS011;13511;48.622;9.230;2023-04-24T06:09:28;5.80;;;5.47;;
25653;SDS011;13511;48.622;9.230;2023-04-24T06:11:54;5.70;;;5.40;;
25653;SDS011;13511;48.622;9.230;2023-04-24T06:14:21;6.32;;;5.78;;
25653;SDS011;13511;48.622;9.230;2023-04-24T06:16:47;5.95;;;5.60;;
25653;SDS011;13511;48.622;9.230;2023-04-24T06:19:13;5.93;;;5.57;;
25653;SDS011;13511;48.622;9.230;2023-04-24T06:21:39;5.80;;;5.55;;
25653;SDS011;13511;48.622;9.230;2023-04-24T06:24:05;6.53;;;6.05;;
25653;SDS011;13511;48.622;9.230;2023-04-24T06:26:31;6.32;;;5.80;;
25653;SDS011;13511;48.622;9.230;2023-04-24T06:28:57;6.35;;;5.95;;
25653;SDS011;13511;48.622;9.230;2023-04-24T06:31:25;5.75;;;5.38;;
25653;SDS011;13511;48.622;9.230;2023-04-24T06:33:52;6.05;;;5.70;;
25653;SDS011;13511;48.622;9.230;2023-04-24T06:36:18;6.03;;;5.80;;
25653;SDS011;13511;48.622;9.230;2023-04-24T06:38:44;6.32;;;5.70;;
25653;SDS011;13511;48.622;9.230;2023-04-24T06:41:10;6.65;;;6.25;;
25653;SDS011;13511;48.622;9.230;2023-04-24T06:43:36;6.85;;;6.15;;
25653;SDS011;13511;48.622;9.230;2023-04-24T06:46:02;6.53;;;6.13;;
25653;SDS011;13511;48.622;9.230;2023-04-24T06:48:28;6.03;;;5.82;;
25653;SDS011;13511;48.622;9.230;2023-04-24T06:50:54;6.60;;;6.03;;
25653;SDS011;13511;48.622;9.230;2023-04-24T06:53:20;6.35;;;5.95;;
25653;SDS011;13511;48.622;9.230;2023-04-24T06:55:46;6.30;;;6.00;;
25653;SDS011;13511;48.622;9.230;2023-04-24T06:58:13;9.02;;;6.30;;
25653;SDS011;13511;48.622;9.230;2023-04-24T07:00:40;6.55;;;6.30;;
25653;SDS011;13511;48.622;9.230;2023-04-24T07:03:06;6.70;;;6.30;;
25653;SDS011;13511;48.622;9.230;2023-04-24T07:05:32;6.07;;;5.82;;
25653;SDS011;13511;48.622;9.230;2023-04-24T07:08:02;6.82;;;6.32;;
25653;SDS011;13511;48.622;9.230;2023-04-24T07:10:28;6.15;;;5.65;;
25653;SDS011;13511;48.622;9.230;2023-04-24T07:12:55;6.32;;;6.03;;
25653;SDS011;13511;48.622;9.230;2023-04-24T07:15:21;7.05;;;6.65;;
25653;SDS011;13511;48.622;9.230;2023-04-24T07:17:48;7.38;;;6.72;;
25653;SDS011;13511;48.622;9.230;2023-04-24T07:20:15;6.30;;;6.10;;
25653;SDS011;13511;48.622;9.230;2023-04-24T07:22:41;7.20;;;6.72;;
25653;SDS011;13511;48.622;9.230;2023-04-24T07:25:07;6.93;;;6.55;;
25653;SDS011;13511;48.622;9.230;2023-04-24T07:27:33;7.72;;;7.20;;
25653;SDS011;13511;48.622;9.230;2023-04-24T07:30:01;7.65;;;7.10;;
25653;SDS011;13511;48.622;9.230;2023-04-24T07:32:27;6.65;;;6.35;;
25653;SDS011;13511;48.622;9.230;2023-04-24T07:34:54;7.65;;;7.05;;
25653;SDS011;13511;48.622;9.230;2023-04-24T07:37:20;7.72;;;6.78;;
25653;SDS011;13511;48.622;9.230;2023-04-24T07:39:46;6.68;;;6.18;;
25653;SDS011;13511;48.622;9.230;2023-04-24T07:42:12;6.85;;;6.35;;
25653;SDS011;13511;48.622;9.230;2023-04-24T07:44:38;6.35;;;6.00;;
25653;SDS011;13511;48.622;9.230;2023-04-24T07:47:04;6.60;;;6.30;;
25653;SDS011;13511;48.622;9.230;2023-04-24T07:49:30;7.10;;;6.70;;
25653;SDS011;13511;48.622;9.230;2023-04-24T07:51:56;6.70;;;6.40;;
25653;SDS011;13511;48.622;9.230;2023-04-24T07:54:25;6.97;;;6.68;;
25653;SDS011;13511;48.622;9.230;2023-04-24T07:56:51;6.03;;;5.82;;
25653;SDS011;13511;48.622;9.230;2023-04-24T07:59:17;6.40;;;5.95;;
25653;SDS011;13511;48.622;9.230;2023-04-24T08:01:43;7.03;;;6.72;;
25653;SDS011;13511;48.622;9.230;2023-04-24T08:04:09;7.10;;;6.80;;
25653;SDS011;13511;48.622;9.230;2023-04-24T08:06:35;6.50;;;6.15;;
25653;SDS011;13511;48.622;9.230;2023-04-24T08:09:01;6.20;;;6.00;;
25653;SDS011;13511;48.622;9.230;2023-04-24T08:11:27;6.70;;;6.40;;
25653;SDS011;13511;48.622;9.230;2023-04-24T08:13:53;6.10;;;5.82;;
25653;SDS011;13511;48.622;9.230;2023-04-24T08:16:19;6.50;;;6.20;;
25653;SDS011;13511;48.622;9.230;2023-04-24T08:18:45;6.80;;;6.50;;
25653;SDS011;13511;48.622;9.230;2023-04-24T08:21:11;6.78;;;6.38;;
25653;SDS011;13511;48.622;9.230;2023-04-24T08:23:41;6.68;;;6.38;;
25653;SDS011;13511;48.622;9.230;2023-04-24T08:26:08;6.70;;;6.30;;
25653;SDS011;13511;48.622;9.230;2023-04-24T08:28:34;6.45;;;5.95;;
25653;SDS011;13511;48.622;9.230;2023-04-24T08:31:00;6.78;;;6.25;;
25653;SDS011;13511;48.622;9.230;2023-04-24T08:33:26;7.65;;;7.13;;
25653;SDS011;13511;48.622;9.230;2023-04-24T08:35:52;7.50;;;6.97;;
25653;SDS011;13511;48.622;9.230;2023-04-24T08:38:18;7.00;;;6.50;;
25653;SDS011;13511;48.622;9.230;2023-04-24T08:40:44;6.70;;;6.30;;
25653;SDS011;13511;48.622;9.230;2023-04-24T08:43:13;5.93;;;5.72;;
25653;SDS011;13511;48.622;9.230;2023-04-24T08:45:39;5.55;;;5.35;;
25653;SDS011;13511;48.622;9.230;2023-04-24T08:48:05;6.28;;;5.95;;
25653;SDS011;13511;48.622;9.230;2023-04-24T08:50:31;7.28;;;5.40;;
25653;SDS011;13511;48.622;9.230;2023-04-24T08:52:58;5.60;;;5.40;;
25653;SDS011;13511;48.622;9.230;2023-04-24T08:55:24;6.13;;;5.82;;
25653;SDS011;13511;48.622;9.230;2023-04-24T08:57:51;5.80;;;5.40;;
25653;SDS011;13511;48.622;9.230;2023-04-24T09:00:18;5.75;;;5.55;;
25653;SDS011;13511;48.622;9.230;2023-04-24T09:02:44;6.28;;;5.78;;
25653;SDS011;13511;48.622;9.230;2023-04-24T09:05:12;6.40;;;6.10;;
25653;SDS011;13511;48.622;9.230;2023-04-24T09:07:39;6.18;;;5.70;;
25653;SDS011;13511;48.622;9.230;2023-04-24T09:10:07;5.95;;;5.47;;
25653;SDS011;13511;48.622;9.230;2023-04-24T09:12:34;5.78;;;5.57;;
25653;SDS011;13511;48.622;9.230;2023-04-24T09:15:00;6.22;;;5.70;;
25653;SDS011;13511;48.622;9.230;2023-04-24T09:17:28;6.30;;;5.70;;
25653;SDS011;13511;48.622;9.230;2023-04-24T09:19:55;6.00;;;5.55;;
25653;SDS011;13511;48.622;9.230;2023-04-24T09:22:21;6.20;;;5.60;;
25653;SDS011;13511;48.622;9.230;2023-04-24T09:24:47;6.00;;;5.70;;
25653;SDS011;13511;48.622;9.230;2023-04-24T09:27:15;5.65;;;5.35;;
25653;SDS011;13511;48.622;9.230;2023-04-24T09:29:53;6.15;;;5.85;;
25653;SDS011;13511;48.622;9.230;2023-04-24T09:32:23;6.22;;;5.80;;
25653;SDS011;13511;48.622;9.230;2023-04-24T09:37:37;6.70;;;6.20;;
25653;SDS011;13511;48.622;9.230;2023-04-24T09:42:39;5.65;;;5.25;;
25653;SDS011;13511;48.622;9.230;2023-04-24T09:45:09;5.78;;;5.38;;
25653;SDS011;13511;48.622;9.230;2023-04-24T09:47:38;5.57;;;5.28;;
25653;SDS011;13511;48.622;9.230;2023-04-24T09:50:14;5.50;;;5.25;;
25653;SDS011;13511;48.622;9.230;2023-04-24T09:52:45;5.13;;;4.93;;
25653;SDS011;13511;48.622;9.230;2023-04-24T09:55:19;5.22;;;4.88;;
25653;SDS011;13511;48.622;9.230;2023-04-24T10:00:21;5.60;;;5.30;;
25653;SDS011;13511;48.622;9.230;2023-04-24T10:02:54;7.05;;;5.43;;
25653;SDS011;13511;48.622;9.230;2023-04-24T10:05:23;6.18;;;5.65;;
25653;SDS011;13511;48.622;9.230;2023-04-24T10:07:50;5.10;;;4.90;;
25653;SDS011;13511;48.622;9.230;2023-04-24T10:10:16;5.72;;;5.43;;
25653;SDS011;13511;48.622;9.230;2023-04-24T10:12:42;5.40;;;5.20;;
25653;SDS011;13511;48.622;9.230;2023-04-24T10:15:10;5.75;;;5.45;;
25653;SDS011;13511;48.622;9.230;2023-04-24T10:17:37;5.55;;;5.18;;
25653;SDS011;13511;48.622;9.230;2023-04-24T10:20:04;4.68;;;4.47;;
25653;SDS011;13511;48.622;9.230;2023-04-24T10:22:31;4.85;;;4.65;;
25653;SDS011;13511;48.622;9.230;2023-04-24T10:24:58;4.90;;;4.70;;
25653;SDS011;13511;48.622;9.230;2023-04-24T10:27:25;5.13;;;4.93;;
25653;SDS011;13511;48.622;9.230;2023-04-24T10:29:52;5.30;;;5.10;;
25653;SDS011;13511;48.622;9.230;2023-04-24T10:32:19;5.15;;;4.95;;
25653;SDS011;13511;48.622;9.230;2023-04-24T10:34:45;5.65;;;5.32;;
25653;SDS011;13511;48.622;9.230;2023-04-24T10:37:12;5.18;;;5.07;;
25653;SDS011;13511;48.622;9.230;2023-04-24T10:39:39;5.18;;;4.97;;
25653;SDS011;13511;48.622;9.230;2023-04-24T10:42:15;5.30;;;4.95;;
25653;SDS011;13511;48.622;9.230;2023-04-24T10:44:42;5.05;;;4.85;;
25653;SDS011;13511;48.622;9.230;2023-04-24T10:47:13;4.97;;;4.78;;
25653;SDS011;13511;48.622;9.230;2023-04-24T10:49:40;4.75;;;4.60;;
25653;SDS011;13511;48.622;9.230;2023-04-24T10:52:06;5.30;;;5.00;;
25653;SDS011;13511;48.622;9.230;2023-04-24T10:59:48;5.55;;;5.25;;
25653;SDS011;13511;48.622;9.230;2023-04-24T11:02:15;5.35;;;5.15;;
25653;SDS011;13511;48.622;9.230;2023-04-24T11:04:42;5.82;;;5.50;;
25653;SDS011;13511;48.622;9.230;2023-04-24T11:07:08;5.95;;;5.70;;
25653;SDS011;13511;48.622;9.230;2023-04-24T11:09:35;5.43;;;5.00;;
25653;SDS011;13511;48.622;9.230;2023-04-24T11:12:11;4.93;;;4.80;;
25653;SDS011;13511;48.622;9.230;2023-04-24T11:17:30;5.10;;;4.80;;
25653;SDS011;13511;48.622;9.230;2023-04-24T11:22:30;5.50;;;5.10;;
25653;SDS011;13511;48.622;9.230;2023-04-24T11:25:01;5.22;;;4.93;;
25653;SDS011;13511;48.622;9.230;2023-04-24T11:27:29;4.85;;;4.72;;
25653;SDS011;13511;48.622;9.230;2023-04-24T11:32:35;5.10;;;4.90;;
25653;SDS011;13511;48.622;9.230;2023-04-24T11:35:08;5.60;;;5.30;;
25653;SDS011;13511;48.622;9.230;2023-04-24T11:37:38;5.55;;;5.30;;
25653;SDS011;13511;48.622;9.230;2023-04-24T11:40:06;5.27;;;5.07;;
25653;SDS011;13511;48.622;9.230;2023-04-24T11:42:36;5.60;;;5.20;;
25653;SDS011;13511;48.622;9.230;2023-04-24T11:45:06;5.28;;;4.97;;
25653;SDS011;13511;48.622;9.230;2023-04-24T11:47:32;5.03;;;4.85;;
25653;SDS011;13511;48.622;9.230;2023-04-24T11:49:59;5.25;;;5.05;;
25653;SDS011;13511;48.622;9.230;2023-04-24T11:52:29;5.10;;;4.90;;
25653;SDS011;13511;48.622;9.230;2023-04-24T11:54:55;5.53;;;5.22;;
25653;SDS011;13511;48.622;9.230;2023-04-24T11:57:22;5.07;;;4.80;;
25653;SDS011;13511;48.622;9.230;2023-04-24T11:59:51;5.10;;;4.93;;
25653;SDS011;13511;48.622;9.230;2023-04-24T12:02:21;5.57;;;5.30;;
25653;SDS011;13511;48.622;9.230;2023-04-24T12:04:47;5.53;;;5.13;;
25653;SDS011;13511;48.622;9.230;2023-04-24T12:07:13;4.82;;;4.63;;
25653;SDS011;13511;48.622;9.230;2023-04-24T12:09:46;4.70;;;4.50;;
25653;SDS011;13511;48.622;9.230;2023-04-24T12:12:13;5.10;;;5.00;;
25653;SDS011;13511;48.622;9.230;2023-04-24T12:14:49;5.38;;;5.07;;
25653;SDS011;13511;48.622;9.230;2023-04-24T12:17:16;5.22;;;5.00;;
25653;SDS011;13511;48.622;9.230;2023-04-24T12:19:45;5.28;;;5.07;;
25653;SDS011;13511;48.622;9.230;2023-04-24T12:22:12;5.45;;;5.10;;
25653;SDS011;13511;48.622;9.230;2023-04-24T12:27:23;5.70;;;5.40;;
25653;SDS011;13511;48.622;9.230;2023-04-24T12:29:53;5.90;;;5.35;;
25653;SDS011;13511;48.622;9.230;2023-04-24T12:32:19;5.70;;;5.40;;
25653;SDS011;13511;48.622;9.230;2023-04-24T12:34:45;5.28;;;4.90;;
25653;SDS011;13511;48.622;9.230;2023-04-24T12:37:11;5.35;;;5.15;;
25653;SDS011;13511;48.622;9.230;2023-04-24T12:39:37;5.20;;;4.80;;
25653;SDS011;13511;48.622;9.230;2023-04-24T12:42:03;5.22;;;4.93;;
25653;SDS011;13511;48.622;9.230;2023-04-24T12:44:32;4.90;;;4.70;;
25653;SDS011;13511;48.622;9.230;2023-04-24T12:46:59;5.10;;;4.80;;
25653;SDS011;13511;48.622;9.230;2023-04-24T12:49:26;4.85;;;4.65;;
25653;SDS011;13511;48.622;9.230;2023-04-24T12:51:52;5.20;;;5.00;;
25653;SDS011;13511;48.622;9.230;2023-04-24T12:54:18;4.90;;;4.70;;
25653;SDS011;13511;48.622;9.230;2023-04-24T12:56:45;4.78;;;4.57;;
25653;SDS011;13511;48.622;9.230;2023-04-24T12:59:10;4.72;;;4.43;;
25653;SDS011;13511;48.622;9.230;2023-04-24T13:01:36;4.72;;;4.45;;
25653;SDS011;13511;48.622;9.230;2023-04-24T13:04:02;4.93;;;4.65;;
25653;SDS011;13511;48.622;9.230;2023-04-24T13:06:28;4.93;;;4.60;;
25653;SDS011;13511;48.622;9.230;2023-04-24T13:08:55;5.00;;;4.80;;
25653;SDS011;13511;48.622;9.230;2023-04-24T13:11:22;4.60;;;4.40;;
25653;SDS011;13511;48.622;9.230;2023-04-24T13:13:48;4.70;;;4.47;;
25653;SDS011;13511;48.622;9.230;2023-04-24T13:16:14;5.10;;;4.80;;
25653;SDS011;13511;48.622;9.230;2023-04-24T13:18:40;5.20;;;4.80;;
25653;SDS011;13511;48.622;9.230;2023-04-24T13:21:06;5.07;;;4.68;;
25653;SDS011;13511;48.622;9.230;2023-04-24T13:23:32;5.20;;;4.90;;
25653;SDS011;13511;48.622;9.230;2023-04-24T13:25:59;4.90;;;4.70;;
25653;SDS011;13511;48.622;9.230;2023-04-24T13:28:26;5.07;;;4.78;;
25653;SDS011;13511;48.622;9.230;2023-04-24T13:30:52;4.93;;;4.72;;
25653;SDS011;13511;48.622;9.230;2023-04-24T13:33:18;5.70;;;5.30;;
25653;SDS011;13511;48.622;9.230;2023-04-24T13:35:44;5.45;;;5.07;;
25653;SDS011;13511;48.622;9.230;2023-04-24T13:38:10;5.35;;;5.13;;
25653;SDS011;13511;48.622;9.230;2023-04-24T13:40:36;5.75;;;5.35;;
25653;SDS011;13511;48.622;9.230;2023-04-24T13:43:02;5.10;;;4.90;;
25653;SDS011;13511;48.622;9.230;2023-04-24T13:45:28;5.55;;;5.15;;
25653;SDS011;13511;48.622;9.230;2023-04-24T13:47:54;5.40;;;5.20;;
25653;SDS011;13511;48.622;9.230;2023-04-24T13:50:21;5.70;;;5.40;;
25653;SDS011;13511;48.622;9.230;2023-04-24T13:52:48;5.60;;;5.10;;
25653;SDS011;13511;48.622;9.230;2023-04-24T13:55:14;5.30;;;5.00;;
25653;SDS011;13511;48.622;9.230;2023-04-24T13:57:40;5.43;;;5.20;;
25653;SDS011;13511;48.622;9.230;2023-04-24T14:00:06;5.53;;;5.22;;
25653;SDS011;13511;48.622;9.230;2023-04-24T14:02:35;5.32;;;4.93;;
25653;SDS011;13511;48.622;9.230;2023-04-24T14:05:01;5.13;;;4.82;;
25653;SDS011;13511;48.622;9.230;2023-04-24T14:07:28;5.40;;;5.20;;
25653;SDS011;13511;48.622;9.230;2023-04-24T14:09:56;5.40;;;5.20;;
25653;SDS011;13511;48.622;9.230;2023-04-24T14:12:22;5.97;;;5.68;;
25653;SDS011;13511;48.622;9.230;2023-04-24T14:14:48;5.78;;;5.47;;
25653;SDS011;13511;48.622;9.230;2023-04-24T14:17:14;6.30;;;5.90;;
25653;SDS011;13511;48.622;9.230;2023-04-24T14:19:40;6.05;;;5.65;;
25653;SDS011;13511;48.622;9.230;2023-04-24T14:22:06;6.00;;;5.72;;
25653;SDS011;13511;48.622;9.230;2023-04-24T14:24:32;5.40;;;5.20;;
25653;SDS011;13511;48.622;9.230;2023-04-24T14:26:58;5.43;;;5.18;;
25653;SDS011;13511;48.622;9.230;2023-04-24T14:29:25;5.82;;;5.50;;
25653;SDS011;13511;48.622;9.230;2023-04-24T14:31:51;5.65;;;5.20;;
25653;SDS011;13511;48.622;9.230;2023-04-24T14:34:17;5.50;;;5.20;;
25653;SDS011;13511;48.622;9.230;2023-04-24T14:36:44;5.57;;;5.28;;
25653;SDS011;13511;48.622;9.230;2023-04-24T14:39:10;5.50;;;5.28;;
25653;SDS011;13511;48.622;9.230;2023-04-24T14:41:36;5.10;;;4.90;;
25653;SDS011;13511;48.622;9.230;2023-04-24T14:44:04;5.47;;;5.28;;
25653;SDS011;13511;48.622;9.230;2023-04-24T14:46:30;4.53;;;4.43;;
25653;SDS011;13511;48.622;9.230;2023-04-24T14:48:56;5.13;;;4.72;;
25653;SDS011;13511;48.622;9.230;2023-04-24T14:51:22;5.30;;;4.90;;
25653;SDS011;13511;48.622;9.230;2023-04-24T14:53:49;5.18;;;4.82;;
25653;SDS011;13511;48.622;9.230;2023-04-24T14:56:15;5.53;;;5.07;;
25653;SDS011;13511;48.622;9.230;2023-04-24T14:58:41;5.20;;;4.95;;
25653;SDS011;13511;48.622;9.230;2023-04-24T15:01:07;5.30;;;4.97;;
25653;SDS011;13511;48.622;9.230;2023-04-24T15:03:33;4.93;;;4.68;;
25653;SDS011;13511;48.622;9.230;2023-04-24T15:05:59;4.47;;;4.25;;
25653;SDS011;13511;48.622;9.230;2023-04-24T15:08:25;4.72;;;4.53;;